Gazpromneft East — UBOF4 — position and weather

sailwx.info

Track history (hours):
 
Tides and Currents Weather Stations Pressure Air Temp Water Temp Dewpoint Dewpoint Depression Visibility Wind Speed Wind Dir Waves Ship Positions

Gazpromneft East

Last reported at 2016-Aug-28 23:32 UTC. Time now 2016-Aug-29 00:10 UTC.
Position N 60°18' E 028°45'.

Length 79 m; draft 4.5 m.

Type: Tanker. MMSI: 273335320.

Date/timePositionNaut miles runAvg speedWind from/ knotsBaromVisibWave heightAir tempDewpointWater temp
2016-Aug-28 23:32N 60°18' E 028°45'2 0.3
2016-Aug-28 17:16N 60°20' E 028°43'0 0.0
2016-Aug-28 16:31N 60°20' E 028°43'0 0.0
2016-Aug-28 09:10N 60°20' E 028°43'0 0.0
2016-Aug-28 08:33N 60°20' E 028°43'0 0.0
2016-Aug-28 06:10N 60°20' E 028°43'  
2016-Aug-25 17:19N 60°01' E 029°30'911.4
2016-Aug-25 16:32N 59°58' E 029°47'3 0.7
2016-Aug-25 13:08N 59°56' E 029°46'0 0.0
2016-Aug-25 12:24N 59°56' E 029°46'0 0.0
2016-Aug-24 21:18N 59°56' E 029°46'4 5.2
2016-Aug-24 20:33N 59°57' E 029°54'10 9.6
2016-Aug-24 19:33N 59°53' E 030°12'1 1.0
2016-Aug-24 18:33N 59°53' E 030°13'0 0.0
2016-Aug-24 17:33N 59°53' E 030°13'0 0.0
2016-Aug-24 16:33N 59°53' E 030°13'0 0.0
2016-Aug-24 15:33N 59°53' E 030°13'0 0.0
2016-Aug-24 14:33N 59°53' E 030°13'0 0.0
2016-Aug-24 13:33N 59°53' E 030°13'0 0.0
2016-Aug-24 12:33N 59°53' E 030°13'0 0.0
2016-Aug-24 11:33N 59°53' E 030°13'0 0.0
2016-Aug-24 10:33N 59°53' E 030°13'0 0.0
2016-Aug-24 09:33N 59°53' E 030°13'0 0.0
2016-Aug-24 08:33N 59°53' E 030°13'0 0.0
2016-Aug-24 07:33N 59°53' E 030°13'0 0.0
2016-Aug-24 06:33N 59°53' E 030°13'14 2.2
2016-Aug-24 00:05N 59°56' E 029°46'0 0.0
2016-Aug-23 20:07N 59°56' E 029°47'3 5.1
2016-Aug-23 19:33N 59°57' E 029°52'1010.0
2016-Aug-23 18:33N 59°53' E 030°10'2 1.8
2016-Aug-23 17:33N 59°53' E 030°14'0 0.0
2016-Aug-23 16:33N 59°53' E 030°14'0 0.0
2016-Aug-23 15:33N 59°53' E 030°14'0 0.0
2016-Aug-23 14:33N 59°53' E 030°14'0 0.0
2016-Aug-23 13:33N 59°53' E 030°14'0 0.0
2016-Aug-23 12:33N 59°53' E 030°14'0 0.0
2016-Aug-23 11:33N 59°53' E 030°14'0 0.0
2016-Aug-23 10:33N 59°53' E 030°14'0 0.0
2016-Aug-23 09:33N 59°53' E 030°14'0 0.0
2016-Aug-23 08:33N 59°53' E 030°14'0 0.0
2016-Aug-23 07:34N 59°53' E 030°14'0 0.0
2016-Aug-23 06:33N 59°53' E 030°13'7 7.4
2016-Aug-23 05:33N 59°55' E 029°59'2811.4
2016-Aug-23 03:05N 60°01' E 029°04'712.3
2016-Aug-23 02:32N 59°58' E 028°52'1212.0
2016-Aug-23 01:33N 59°52' E 028°31'6 6.3
2016-Aug-23 00:33N 59°47' E 028°25'0 0.0
2016-Aug-22 23:33N 59°47' E 028°25'0 0.0
2016-Aug-22 22:33N 59°47' E 028°25'0 0.0
2016-Aug-22 21:33N 59°47' E 028°25'0 0.0
2016-Aug-22 20:33N 59°47' E 028°25'0 0.0
2016-Aug-22 19:33N 59°47' E 028°25'0 0.0
2016-Aug-22 18:33N 59°47' E 028°25'0 0.1
2016-Aug-22 17:33N 59°47' E 028°25'0 0.0
2016-Aug-22 16:33N 59°47' E 028°25'0 0.1
2016-Aug-22 15:33N 59°47' E 028°25'6 6.3
2016-Aug-22 14:34N 59°41' E 028°25'0 0.1
2016-Aug-22 13:33N 59°41' E 028°25'0 0.0
2016-Aug-22 12:33N 59°41' E 028°25'0 0.0
2016-Aug-22 11:33N 59°41' E 028°25'0 0.0
2016-Aug-22 10:33N 59°41' E 028°25'0 0.0
2016-Aug-22 09:33N 59°41' E 028°25'0 0.0
2016-Aug-22 08:33N 59°41' E 028°25'0 0.0
2016-Aug-22 07:33N 59°41' E 028°25'0 0.0
2016-Aug-22 06:33N 59°41' E 028°25'3 2.9
2016-Aug-22 05:33N 59°42' E 028°20'0 0.0
2016-Aug-22 04:32N 59°42' E 028°20'0 0.0
2016-Aug-22 03:32N 59°42' E 028°20'0 0.0
2016-Aug-22 02:32N 59°42' E 028°20'0 0.0
2016-Aug-22 01:23N 59°42' E 028°20'0 0.0
2016-Aug-22 00:26N 59°42' E 028°20'0 0.0
2016-Aug-21 23:26N 59°42' E 028°20'0 0.0
2016-Aug-21 22:26N 59°42' E 028°20'0 0.0
2016-Aug-21 21:29N 59°42' E 028°20'0 0.0
2016-Aug-21 20:29N 59°42' E 028°20'0 0.0
2016-Aug-21 19:29N 59°42' E 028°20'0 0.0
2016-Aug-21 18:32N 59°42' E 028°20'0 0.0
2016-Aug-21 17:32N 59°42' E 028°20'0 0.0
2016-Aug-21 16:17N 59°42' E 028°20'0 0.0
2016-Aug-21 15:32N 59°42' E 028°20'0 0.0
2016-Aug-21 14:28N 59°42' E 028°20'0 0.0
2016-Aug-21 13:28N 59°42' E 028°20'0 0.0
2016-Aug-21 12:28N 59°42' E 028°20'0 0.0
2016-Aug-21 11:31N 59°42' E 028°20'0 0.0
2016-Aug-21 10:31N 59°42' E 028°20'0 0.0
2016-Aug-21 09:31N 59°42' E 028°20'0 0.0
2016-Aug-21 08:31N 59°42' E 028°20'0 0.0
2016-Aug-21 07:31N 59°42' E 028°20'3 2.9
2016-Aug-21 06:33N 59°41' E 028°25'0 0.0
2016-Aug-21 05:33N 59°41' E 028°25'0 0.0
2016-Aug-21 04:33N 59°41' E 028°25'0 0.0
2016-Aug-21 03:33N 59°41' E 028°25'0 0.0
2016-Aug-21 02:32N 59°41' E 028°25'0 0.0
2016-Aug-21 01:34N 59°41' E 028°25'0 0.0
2016-Aug-21 00:33N 59°41' E 028°25'0 0.0
2016-Aug-20 23:34N 59°41' E 028°25'1 0.8
2016-Aug-20 22:34N 59°41' E 028°24'6 5.5
2016-Aug-20 21:33N 59°47' E 028°25'0 0.0
2016-Aug-20 20:33N 59°47' E 028°25'0 0.0
2016-Aug-20 19:34N 59°47' E 028°25'0 0.0
2016-Aug-20 18:33N 59°47' E 028°25'0 0.0
2016-Aug-20 17:33N 59°47' E 028°25'0 0.0
2016-Aug-20 16:33N 59°47' E 028°25'0 0.0
2016-Aug-20 15:33N 59°47' E 028°25'0 0.0
2016-Aug-20 14:33N 59°47' E 028°25'6 5.7
2016-Aug-20 13:33N 59°41' E 028°25'0 0.0
2016-Aug-20 12:33N 59°41' E 028°25'0 0.0
2016-Aug-20 11:34N 59°41' E 028°25'0 0.0
2016-Aug-20 10:34N 59°41' E 028°25'0 0.0
2016-Aug-20 09:34N 59°41' E 028°25'0 0.0
2016-Aug-20 08:33N 59°41' E 028°25'0 0.0
2016-Aug-20 07:34N 59°41' E 028°25'0 0.0
2016-Aug-20 06:33N 59°41' E 028°25'0 0.0
2016-Aug-20 05:33N 59°41' E 028°25'0 0.0
2016-Aug-20 04:33N 59°41' E 028°25'0 0.0
2016-Aug-20 03:33N 59°41' E 028°25'0 0.0
2016-Aug-20 02:33N 59°41' E 028°25'1 0.9
2016-Aug-20 01:33N 59°42' E 028°24'9 8.8
2016-Aug-20 00:33N 59°51' E 028°26'7 7.0
2016-Aug-19 23:33N 59°55' E 028°37'0 0.0
2016-Aug-19 22:33N 59°55' E 028°37'0 0.0
2016-Aug-19 21:21N 59°55' E 028°37'0 0.0
2016-Aug-19 20:27N 59°55' E 028°37'0 0.0
2016-Aug-19 19:27N 59°55' E 028°37'0 0.0
2016-Aug-19 18:27N 59°55' E 028°37'0 0.0
2016-Aug-19 17:27N 59°55' E 028°37'0 0.0
2016-Aug-19 16:30N 59°55' E 028°37'0 0.0
2016-Aug-19 15:30N 59°55' E 028°37'0 0.0
2016-Aug-19 14:30N 59°55' E 028°37'0 0.0
2016-Aug-19 13:33N 59°55' E 028°37'0 0.0
2016-Aug-19 12:33N 59°55' E 028°37'0 0.0
2016-Aug-19 11:30N 59°55' E 028°37'0 0.0
2016-Aug-19 10:33N 59°55' E 028°37'0 0.0
2016-Aug-19 09:21N 59°55' E 028°37'0 0.0
2016-Aug-19 08:33N 59°55' E 028°37'0 0.0
2016-Aug-19 07:24N 59°55' E 028°37'0 0.0
2016-Aug-19 06:27N 59°55' E 028°38'0 0.0
2016-Aug-19 05:27N 59°55' E 028°38'0 0.0
2016-Aug-19 04:27N 59°55' E 028°38'0 0.0
2016-Aug-19 03:30N 59°55' E 028°38'0 0.0
2016-Aug-19 02:30N 59°55' E 028°38'0 0.0
2016-Aug-19 01:30N 59°55' E 028°38'0 0.0
2016-Aug-19 00:33N 59°55' E 028°38'0 0.0
2016-Aug-18 23:33N 59°55' E 028°38'  
Track history (hours):
 
Tides and Currents Weather Stations Pressure Air Temp Water Temp Dewpoint Dewpoint Depression Visibility Wind Speed Wind Dir Waves Ship Positions

Gazpromneft East

Last reported at 2016-Aug-28 23:32 UTC. Time now 2016-Aug-29 00:10 UTC.
Position N 60°18' E 028°45'.

Length 79 m; draft 4.5 m.

Type: Tanker. MMSI: 273335320.

Date/timePositionNaut miles runAvg speedWind from/ knotsBaromVisibWave heightAir tempDewpointWater temp
2016-Aug-28 23:32N 60°18' E 028°45'2 0.3
2016-Aug-28 17:16N 60°20' E 028°43'0 0.0
2016-Aug-28 16:31N 60°20' E 028°43'0 0.0
2016-Aug-28 09:10N 60°20' E 028°43'0 0.0
2016-Aug-28 08:33N 60°20' E 028°43'0 0.0
2016-Aug-28 06:10N 60°20' E 028°43'  
2016-Aug-25 17:19N 60°01' E 029°30'911.4
2016-Aug-25 16:32N 59°58' E 029°47'3 0.7
2016-Aug-25 13:08N 59°56' E 029°46'0 0.0
2016-Aug-25 12:24N 59°56' E 029°46'0 0.0
2016-Aug-24 21:18N 59°56' E 029°46'4 5.2
2016-Aug-24 20:33N 59°57' E 029°54'10 9.6
2016-Aug-24 19:33N 59°53' E 030°12'1 1.0
2016-Aug-24 18:33N 59°53' E 030°13'0 0.0
2016-Aug-24 17:33N 59°53' E 030°13'0 0.0
2016-Aug-24 16:33N 59°53' E 030°13'0 0.0
2016-Aug-24 15:33N 59°53' E 030°13'0 0.0
2016-Aug-24 14:33N 59°53' E 030°13'0 0.0
2016-Aug-24 13:33N 59°53' E 030°13'0 0.0
2016-Aug-24 12:33N 59°53' E 030°13'0 0.0
2016-Aug-24 11:33N 59°53' E 030°13'0 0.0
2016-Aug-24 10:33N 59°53' E 030°13'0 0.0
2016-Aug-24 09:33N 59°53' E 030°13'0 0.0
2016-Aug-24 08:33N 59°53' E 030°13'0 0.0
2016-Aug-24 07:33N 59°53' E 030°13'0 0.0
2016-Aug-24 06:33N 59°53' E 030°13'14 2.2
2016-Aug-24 00:05N 59°56' E 029°46'0 0.0
2016-Aug-23 20:07N 59°56' E 029°47'3 5.1
2016-Aug-23 19:33N 59°57' E 029°52'1010.0
2016-Aug-23 18:33N 59°53' E 030°10'2 1.8
2016-Aug-23 17:33N 59°53' E 030°14'0 0.0
2016-Aug-23 16:33N 59°53' E 030°14'0 0.0
2016-Aug-23 15:33N 59°53' E 030°14'0 0.0
2016-Aug-23 14:33N 59°53' E 030°14'0 0.0
2016-Aug-23 13:33N 59°53' E 030°14'0 0.0
2016-Aug-23 12:33N 59°53' E 030°14'0 0.0
2016-Aug-23 11:33N 59°53' E 030°14'0 0.0
2016-Aug-23 10:33N 59°53' E 030°14'0 0.0
2016-Aug-23 09:33N 59°53' E 030°14'0 0.0
2016-Aug-23 08:33N 59°53' E 030°14'0 0.0
2016-Aug-23 07:34N 59°53' E 030°14'0 0.0
2016-Aug-23 06:33N 59°53' E 030°13'7 7.4
2016-Aug-23 05:33N 59°55' E 029°59'2811.4
2016-Aug-23 03:05N 60°01' E 029°04'712.3
2016-Aug-23 02:32N 59°58' E 028°52'1212.0
2016-Aug-23 01:33N 59°52' E 028°31'6 6.3
2016-Aug-23 00:33N 59°47' E 028°25'0 0.0
2016-Aug-22 23:33N 59°47' E 028°25'0 0.0
2016-Aug-22 22:33N 59°47' E 028°25'0 0.0
2016-Aug-22 21:33N 59°47' E 028°25'0 0.0
2016-Aug-22 20:33N 59°47' E 028°25'0 0.0
2016-Aug-22 19:33N 59°47' E 028°25'0 0.0
2016-Aug-22 18:33N 59°47' E 028°25'0 0.1
2016-Aug-22 17:33N 59°47' E 028°25'0 0.0
2016-Aug-22 16:33N 59°47' E 028°25'0 0.1
2016-Aug-22 15:33N 59°47' E 028°25'6 6.3
2016-Aug-22 14:34N 59°41' E 028°25'0 0.1
2016-Aug-22 13:33N 59°41' E 028°25'0 0.0
2016-Aug-22 12:33N 59°41' E 028°25'0 0.0
2016-Aug-22 11:33N 59°41' E 028°25'0 0.0
2016-Aug-22 10:33N 59°41' E 028°25'0 0.0
2016-Aug-22 09:33N 59°41' E 028°25'0 0.0
2016-Aug-22 08:33N 59°41' E 028°25'0 0.0
2016-Aug-22 07:33N 59°41' E 028°25'0 0.0
2016-Aug-22 06:33N 59°41' E 028°25'3 2.9
2016-Aug-22 05:33N 59°42' E 028°20'0 0.0
2016-Aug-22 04:32N 59°42' E 028°20'0 0.0
2016-Aug-22 03:32N 59°42' E 028°20'0 0.0
2016-Aug-22 02:32N 59°42' E 028°20'0 0.0
2016-Aug-22 01:23N 59°42' E 028°20'0 0.0
2016-Aug-22 00:26N 59°42' E 028°20'0 0.0
2016-Aug-21 23:26N 59°42' E 028°20'0 0.0
2016-Aug-21 22:26N 59°42' E 028°20'0 0.0
2016-Aug-21 21:29N 59°42' E 028°20'0 0.0
2016-Aug-21 20:29N 59°42' E 028°20'0 0.0
2016-Aug-21 19:29N 59°42' E 028°20'0 0.0
2016-Aug-21 18:32N 59°42' E 028°20'0 0.0
2016-Aug-21 17:32N 59°42' E 028°20'0 0.0
2016-Aug-21 16:17N 59°42' E 028°20'0 0.0
2016-Aug-21 15:32N 59°42' E 028°20'0 0.0
2016-Aug-21 14:28N 59°42' E 028°20'0 0.0
2016-Aug-21 13:28N 59°42' E 028°20'0 0.0
2016-Aug-21 12:28N 59°42' E 028°20'0 0.0
2016-Aug-21 11:31N 59°42' E 028°20'0 0.0
2016-Aug-21 10:31N 59°42' E 028°20'0 0.0
2016-Aug-21 09:31N 59°42' E 028°20'0 0.0
2016-Aug-21 08:31N 59°42' E 028°20'0 0.0
2016-Aug-21 07:31N 59°42' E 028°20'3 2.9
2016-Aug-21 06:33N 59°41' E 028°25'0 0.0
2016-Aug-21 05:33N 59°41' E 028°25'0 0.0
2016-Aug-21 04:33N 59°41' E 028°25'0 0.0
2016-Aug-21 03:33N 59°41' E 028°25'0 0.0
2016-Aug-21 02:32N 59°41' E 028°25'0 0.0
2016-Aug-21 01:34N 59°41' E 028°25'0 0.0
2016-Aug-21 00:33N 59°41' E 028°25'0 0.0
2016-Aug-20 23:34N 59°41' E 028°25'1 0.8
2016-Aug-20 22:34N 59°41' E 028°24'6 5.5
2016-Aug-20 21:33N 59°47' E 028°25'0 0.0
2016-Aug-20 20:33N 59°47' E 028°25'0 0.0
2016-Aug-20 19:34N 59°47' E 028°25'0 0.0
2016-Aug-20 18:33N 59°47' E 028°25'0 0.0
2016-Aug-20 17:33N 59°47' E 028°25'0 0.0
2016-Aug-20 16:33N 59°47' E 028°25'0 0.0
2016-Aug-20 15:33N 59°47' E 028°25'0 0.0
2016-Aug-20 14:33N 59°47' E 028°25'6 5.7
2016-Aug-20 13:33N 59°41' E 028°25'0 0.0
2016-Aug-20 12:33N 59°41' E 028°25'0 0.0
2016-Aug-20 11:34N 59°41' E 028°25'0 0.0
2016-Aug-20 10:34N 59°41' E 028°25'0 0.0
2016-Aug-20 09:34N 59°41' E 028°25'0 0.0
2016-Aug-20 08:33N 59°41' E 028°25'0 0.0
2016-Aug-20 07:34N 59°41' E 028°25'0 0.0
2016-Aug-20 06:33N 59°41' E 028°25'0 0.0
2016-Aug-20 05:33N 59°41' E 028°25'0 0.0
2016-Aug-20 04:33N 59°41' E 028°25'0 0.0
2016-Aug-20 03:33N 59°41' E 028°25'0 0.0
2016-Aug-20 02:33N 59°41' E 028°25'1 0.9
2016-Aug-20 01:33N 59°42' E 028°24'9 8.8
2016-Aug-20 00:33N 59°51' E 028°26'7 7.0
2016-Aug-19 23:33N 59°55' E 028°37'0 0.0
2016-Aug-19 22:33N 59°55' E 028°37'0 0.0
2016-Aug-19 21:21N 59°55' E 028°37'0 0.0
2016-Aug-19 20:27N 59°55' E 028°37'0 0.0
2016-Aug-19 19:27N 59°55' E 028°37'0 0.0
2016-Aug-19 18:27N 59°55' E 028°37'0 0.0
2016-Aug-19 17:27N 59°55' E 028°37'0 0.0
2016-Aug-19 16:30N 59°55' E 028°37'0 0.0
2016-Aug-19 15:30N 59°55' E 028°37'0 0.0
2016-Aug-19 14:30N 59°55' E 028°37'0 0.0
2016-Aug-19 13:33N 59°55' E 028°37'0 0.0
2016-Aug-19 12:33N 59°55' E 028°37'0 0.0
2016-Aug-19 11:30N 59°55' E 028°37'0 0.0
2016-Aug-19 10:33N 59°55' E 028°37'0 0.0
2016-Aug-19 09:21N 59°55' E 028°37'0 0.0
2016-Aug-19 08:33N 59°55' E 028°37'0 0.0
2016-Aug-19 07:24N 59°55' E 028°37'0 0.0
2016-Aug-19 06:27N 59°55' E 028°38'0 0.0
2016-Aug-19 05:27N 59°55' E 028°38'0 0.0
2016-Aug-19 04:27N 59°55' E 028°38'0 0.0
2016-Aug-19 03:30N 59°55' E 028°38'0 0.0
2016-Aug-19 02:30N 59°55' E 028°38'0 0.0
2016-Aug-19 01:30N 59°55' E 028°38'0 0.0
2016-Aug-19 00:33N 59°55' E 028°38'0 0.0
2016-Aug-18 23:33N 59°55' E 028°38'  

Dump ship's entire track history